sensor_id;sensor_type;location;lat;lon;timestamp;temperature;humidity
15455;DHT22;21057;51.024;7.540;2024-01-25T00:00:43;9.00;99.90
15455;DHT22;21057;51.024;7.540;2024-01-25T00:03:10;9.20;99.90
15455;DHT22;21057;51.024;7.540;2024-01-25T00:05:37;9.10;99.90
15455;DHT22;21057;51.024;7.540;2024-01-25T00:08:05;8.90;99.90
15455;DHT22;21057;51.024;7.540;2024-01-25T00:10:32;8.90;99.90
15455;DHT22;21057;51.024;7.540;2024-01-25T00:12:59;8.90;99.90
15455;DHT22;21057;51.024;7.540;2024-01-25T00:15:27;8.80;99.90
15455;DHT22;21057;51.024;7.540;2024-01-25T00:17:54;8.70;99.90
15455;DHT22;21057;51.024;7.540;2024-01-25T00:20:22;8.80;99.90
15455;DHT22;21057;51.024;7.540;2024-01-25T00:22:49;8.60;99.90
15455;DHT22;21057;51.024;7.540;2024-01-25T00:25:17;8.50;99.90
15455;DHT22;21057;51.024;7.540;2024-01-25T00:27:44;8.50;99.90
15455;DHT22;21057;51.024;7.540;2024-01-25T00:30:13;8.60;99.90
15455;DHT22;21057;51.024;7.540;2024-01-25T00:32:39;8.70;99.90
15455;DHT22;21057;51.024;7.540;2024-01-25T00:35:07;8.90;99.90
15455;DHT22;21057;51.024;7.540;2024-01-25T00:37:35;8.90;99.90
15455;DHT22;21057;51.024;7.540;2024-01-25T00:40:03;8.70;99.90
15455;DHT22;21057;51.024;7.540;2024-01-25T00:42:33;8.70;99.90
15455;DHT22;21057;51.024;7.540;2024-01-25T00:45:05;8.80;99.90
15455;DHT22;21057;51.024;7.540;2024-01-25T00:47:32;9.00;99.90
15455;DHT22;21057;51.024;7.540;2024-01-25T00:49:59;8.90;99.90
15455;DHT22;21057;51.024;7.540;2024-01-25T00:52:27;8.70;99.90
15455;DHT22;21057;51.024;7.540;2024-01-25T00:54:54;8.80;99.90
15455;DHT22;21057;51.024;7.540;2024-01-25T00:57:21;8.80;99.90
15455;DHT22;21057;51.024;7.540;2024-01-25T00:59:50;8.60;99.90
15455;DHT22;21057;51.024;7.540;2024-01-25T01:02:17;8.70;99.90
15455;DHT22;21057;51.024;7.540;2024-01-25T01:04:47;8.70;99.90
15455;DHT22;21057;51.024;7.540;2024-01-25T01:07:14;8.70;99.90
15455;DHT22;21057;51.024;7.540;2024-01-25T01:09:41;8.70;99.90
15455;DHT22;21057;51.024;7.540;2024-01-25T01:12:08;8.90;99.90
15455;DHT22;21057;51.024;7.540;2024-01-25T01:14:35;9.00;99.90
15455;DHT22;21057;51.024;7.540;2024-01-25T01:17:03;8.90;99.90
15455;DHT22;21057;51.024;7.540;2024-01-25T01:19:31;8.80;99.90
15455;DHT22;21057;51.024;7.540;2024-01-25T01:21:58;8.70;99.90
15455;DHT22;21057;51.024;7.540;2024-01-25T01:24:24;8.90;99.90
15455;DHT22;21057;51.024;7.540;2024-01-25T01:26:51;9.00;99.90
15455;DHT22;21057;51.024;7.540;2024-01-25T01:29:18;8.90;99.90
15455;DHT22;21057;51.024;7.540;2024-01-25T01:31:45;8.80;99.90
15455;DHT22;21057;51.024;7.540;2024-01-25T01:34:13;8.70;99.90
15455;DHT22;21057;51.024;7.540;2024-01-25T01:36:40;8.70;99.90
15455;DHT22;21057;51.024;7.540;2024-01-25T01:39:07;8.50;99.90
15455;DHT22;21057;51.024;7.540;2024-01-25T01:41:34;8.60;99.90
15455;DHT22;21057;51.024;7.540;2024-01-25T01:44:00;8.80;99.90
15455;DHT22;21057;51.024;7.540;2024-01-25T01:46:32;8.80;99.90
15455;DHT22;21057;51.024;7.540;2024-01-25T01:49:00;8.80;99.90
15455;DHT22;21057;51.024;7.540;2024-01-25T01:51:30;8.80;99.90
15455;DHT22;21057;51.024;7.540;2024-01-25T01:53:57;8.90;99.90
15455;DHT22;21057;51.024;7.540;2024-01-25T01:56:27;8.70;99.90
15455;DHT22;21057;51.024;7.540;2024-01-25T01:58:56;8.60;99.90
15455;DHT22;21057;51.024;7.540;2024-01-25T02:01:24;8.70;99.90
15455;DHT22;21057;51.024;7.540;2024-01-25T02:03:50;8.80;99.90
15455;DHT22;21057;51.024;7.540;2024-01-25T02:06:18;8.80;99.90
15455;DHT22;21057;51.024;7.540;2024-01-25T02:08:47;8.60;99.90
15455;DHT22;21057;51.024;7.540;2024-01-25T02:11:14;8.70;99.90
15455;DHT22;21057;51.024;7.540;2024-01-25T02:13:41;8.70;99.90
15455;DHT22;21057;51.024;7.540;2024-01-25T02:16:08;8.80;99.90
15455;DHT22;21057;51.024;7.540;2024-01-25T02:18:35;8.60;99.90
15455;DHT22;21057;51.024;7.540;2024-01-25T02:21:02;8.50;99.90
15455;DHT22;21057;51.024;7.540;2024-01-25T02:23:30;8.50;99.90
15455;DHT22;21057;51.024;7.540;2024-01-25T02:25:57;8.50;99.90
15455;DHT22;21057;51.024;7.540;2024-01-25T02:28:24;8.40;99.90
15455;DHT22;21057;51.024;7.540;2024-01-25T02:30:51;8.30;99.90
15455;DHT22;21057;51.024;7.540;2024-01-25T02:33:18;8.60;99.90
15455;DHT22;21057;51.024;7.540;2024-01-25T02:35:44;8.50;99.90
15455;DHT22;21057;51.024;7.540;2024-01-25T02:38:11;8.40;99.90
15455;DHT22;21057;51.024;7.540;2024-01-25T02:40:39;8.50;99.90
15455;DHT22;21057;51.024;7.540;2024-01-25T02:43:06;8.40;99.90
15455;DHT22;21057;51.024;7.540;2024-01-25T02:45:33;8.20;99.90
15455;DHT22;21057;51.024;7.540;2024-01-25T02:47:59;8.30;99.90
15455;DHT22;21057;51.024;7.540;2024-01-25T02:50:27;8.40;99.90
15455;DHT22;21057;51.024;7.540;2024-01-25T02:52:54;8.30;99.90
15455;DHT22;21057;51.024;7.540;2024-01-25T02:55:21;8.30;99.90
15455;DHT22;21057;51.024;7.540;2024-01-25T02:57:49;8.40;99.90
15455;DHT22;21057;51.024;7.540;2024-01-25T03:00:16;8.40;99.90
15455;DHT22;21057;51.024;7.540;2024-01-25T03:02:43;8.50;99.90
15455;DHT22;21057;51.024;7.540;2024-01-25T03:05:10;8.30;99.90
15455;DHT22;21057;51.024;7.540;2024-01-25T03:07:37;8.30;99.90
15455;DHT22;21057;51.024;7.540;2024-01-25T03:10:04;8.20;99.90
15455;DHT22;21057;51.024;7.540;2024-01-25T03:12:31;8.30;99.90
15455;DHT22;21057;51.024;7.540;2024-01-25T03:14:59;8.30;99.90
15455;DHT22;21057;51.024;7.540;2024-01-25T03:17:26;8.50;99.90
15455;DHT22;21057;51.024;7.540;2024-01-25T03:19:53;8.30;99.90
15455;DHT22;21057;51.024;7.540;2024-01-25T03:22:20;8.30;99.90
15455;DHT22;21057;51.024;7.540;2024-01-25T03:24:47;8.40;99.90
15455;DHT22;21057;51.024;7.540;2024-01-25T03:27:14;8.50;99.90
15455;DHT22;21057;51.024;7.540;2024-01-25T03:29:41;8.50;99.90
15455;DHT22;21057;51.024;7.540;2024-01-25T03:32:10;8.20;99.90
15455;DHT22;21057;51.024;7.540;2024-01-25T03:34:36;8.10;99.90
15455;DHT22;21057;51.024;7.540;2024-01-25T03:37:03;8.20;99.90
15455;DHT22;21057;51.024;7.540;2024-01-25T03:39:30;8.30;99.90
15455;DHT22;21057;51.024;7.540;2024-01-25T03:41:57;8.20;99.90
15455;DHT22;21057;51.024;7.540;2024-01-25T03:44:24;8.10;99.90
15455;DHT22;21057;51.024;7.540;2024-01-25T03:46:51;8.20;99.90
15455;DHT22;21057;51.024;7.540;2024-01-25T03:49:19;8.20;99.90
15455;DHT22;21057;51.024;7.540;2024-01-25T03:51:48;8.40;99.90
15455;DHT22;21057;51.024;7.540;2024-01-25T03:54:15;8.40;99.90
15455;DHT22;21057;51.024;7.540;2024-01-25T03:56:42;8.40;99.90
15455;DHT22;21057;51.024;7.540;2024-01-25T03:59:09;8.50;99.90
15455;DHT22;21057;51.024;7.540;2024-01-25T04:01:42;8.40;99.90
15455;DHT22;21057;51.024;7.540;2024-01-25T04:04:09;8.40;99.90
15455;DHT22;21057;51.024;7.540;2024-01-25T04:06:38;8.50;99.90
15455;DHT22;21057;51.024;7.540;2024-01-25T04:09:05;8.60;99.90
15455;DHT22;21057;51.024;7.540;2024-01-25T04:11:32;8.70;99.90
15455;DHT22;21057;51.024;7.540;2024-01-25T04:13:59;8.40;99.90
15455;DHT22;21057;51.024;7.540;2024-01-25T04:16:26;8.20;99.90
15455;DHT22;21057;51.024;7.540;2024-01-25T04:18:53;8.20;99.90
15455;DHT22;21057;51.024;7.540;2024-01-25T04:21:20;8.20;99.90
15455;DHT22;21057;51.024;7.540;2024-01-25T04:23:48;8.20;99.90
15455;DHT22;21057;51.024;7.540;2024-01-25T04:26:15;8.20;99.90
15455;DHT22;21057;51.024;7.540;2024-01-25T04:28:42;8.20;99.90
15455;DHT22;21057;51.024;7.540;2024-01-25T04:31:09;8.30;99.90
15455;DHT22;21057;51.024;7.540;2024-01-25T04:33:35;8.40;99.90
15455;DHT22;21057;51.024;7.540;2024-01-25T04:36:04;8.40;99.90
15455;DHT22;21057;51.024;7.540;2024-01-25T04:38:31;8.40;99.90
15455;DHT22;21057;51.024;7.540;2024-01-25T04:41:00;8.40;99.90
15455;DHT22;21057;51.024;7.540;2024-01-25T04:43:26;8.30;99.90
15455;DHT22;21057;51.024;7.540;2024-01-25T04:45:53;8.10;99.90
15455;DHT22;21057;51.024;7.540;2024-01-25T04:48:20;8.10;99.90
15455;DHT22;21057;51.024;7.540;2024-01-25T04:50:46;8.10;99.90
15455;DHT22;21057;51.024;7.540;2024-01-25T04:53:13;8.20;99.90
15455;DHT22;21057;51.024;7.540;2024-01-25T04:55:40;8.10;99.90
15455;DHT22;21057;51.024;7.540;2024-01-25T04:58:08;8.00;99.90
15455;DHT22;21057;51.024;7.540;2024-01-25T05:00:35;8.10;99.90
15455;DHT22;21057;51.024;7.540;2024-01-25T05:03:04;7.90;99.90
15455;DHT22;21057;51.024;7.540;2024-01-25T05:05:31;8.00;99.90
15455;DHT22;21057;51.024;7.540;2024-01-25T05:07:58;8.10;99.90
15455;DHT22;21057;51.024;7.540;2024-01-25T05:10:25;8.10;99.90
15455;DHT22;21057;51.024;7.540;2024-01-25T05:12:51;8.20;99.90
15455;DHT22;21057;51.024;7.540;2024-01-25T05:15:20;8.20;99.90
15455;DHT22;21057;51.024;7.540;2024-01-25T05:17:46;8.10;99.90
15455;DHT22;21057;51.024;7.540;2024-01-25T05:20:13;8.00;99.90
15455;DHT22;21057;51.024;7.540;2024-01-25T05:22:42;8.00;99.90
15455;DHT22;21057;51.024;7.540;2024-01-25T05:25:09;8.00;99.90
15455;DHT22;21057;51.024;7.540;2024-01-25T05:27:36;8.10;99.90
15455;DHT22;21057;51.024;7.540;2024-01-25T05:30:03;8.10;99.90
15455;DHT22;21057;51.024;7.540;2024-01-25T05:32:32;8.20;99.90
15455;DHT22;21057;51.024;7.540;2024-01-25T05:34:59;8.10;99.90
15455;DHT22;21057;51.024;7.540;2024-01-25T05:37:26;8.00;99.90
15455;DHT22;21057;51.024;7.540;2024-01-25T05:39:53;8.00;99.90
15455;DHT22;21057;51.024;7.540;2024-01-25T05:42:20;8.00;99.90
15455;DHT22;21057;51.024;7.540;2024-01-25T05:44:46;8.00;99.90
15455;DHT22;21057;51.024;7.540;2024-01-25T05:47:13;8.00;99.90
15455;DHT22;21057;51.024;7.540;2024-01-25T05:49:41;7.90;99.90
15455;DHT22;21057;51.024;7.540;2024-01-25T05:52:08;8.10;99.90
15455;DHT22;21057;51.024;7.540;2024-01-25T05:54:35;8.20;99.90
15455;DHT22;21057;51.024;7.540;2024-01-25T05:57:03;8.10;99.90
15455;DHT22;21057;51.024;7.540;2024-01-25T05:59:30;7.90;99.90
15455;DHT22;21057;51.024;7.540;2024-01-25T06:01:57;7.70;99.90
15455;DHT22;21057;51.024;7.540;2024-01-25T06:04:24;7.80;99.90
15455;DHT22;21057;51.024;7.540;2024-01-25T06:06:52;7.90;99.90
15455;DHT22;21057;51.024;7.540;2024-01-25T06:09:19;7.80;99.90
15455;DHT22;21057;51.024;7.540;2024-01-25T06:11:46;7.90;99.90
15455;DHT22;21057;51.024;7.540;2024-01-25T06:14:13;7.80;99.90
15455;DHT22;21057;51.024;7.540;2024-01-25T06:16:39;7.80;99.90
15455;DHT22;21057;51.024;7.540;2024-01-25T06:19:06;7.90;99.90
15455;DHT22;21057;51.024;7.540;2024-01-25T06:21:33;8.00;99.90
15455;DHT22;21057;51.024;7.540;2024-01-25T06:24:02;8.00;99.90
15455;DHT22;21057;51.024;7.540;2024-01-25T06:26:29;7.90;99.90
15455;DHT22;21057;51.024;7.540;2024-01-25T06:28:56;8.00;99.90
15455;DHT22;21057;51.024;7.540;2024-01-25T06:31:23;7.90;99.90
15455;DHT22;21057;51.024;7.540;2024-01-25T06:33:50;8.00;99.90
15455;DHT22;21057;51.024;7.540;2024-01-25T06:36:18;8.00;99.90
15455;DHT22;21057;51.024;7.540;2024-01-25T06:38:45;8.10;99.90
15455;DHT22;21057;51.024;7.540;2024-01-25T06:41:13;8.00;99.90
15455;DHT22;21057;51.024;7.540;2024-01-25T06:43:40;8.00;99.90
15455;DHT22;21057;51.024;7.540;2024-01-25T06:46:07;7.90;99.90
15455;DHT22;21057;51.024;7.540;2024-01-25T06:48:34;7.70;99.90
15455;DHT22;21057;51.024;7.540;2024-01-25T06:51:01;7.70;99.90
15455;DHT22;21057;51.024;7.540;2024-01-25T06:53:28;7.70;99.90
15455;DHT22;21057;51.024;7.540;2024-01-25T06:55:55;7.80;99.90
15455;DHT22;21057;51.024;7.540;2024-01-25T06:58:23;7.90;99.90
15455;DHT22;21057;51.024;7.540;2024-01-25T07:00:50;7.90;99.90
15455;DHT22;21057;51.024;7.540;2024-01-25T07:03:18;8.00;99.90
15455;DHT22;21057;51.024;7.540;2024-01-25T07:05:45;7.90;99.90
15455;DHT22;21057;51.024;7.540;2024-01-25T07:08:12;7.80;99.90
15455;DHT22;21057;51.024;7.540;2024-01-25T07:10:39;7.80;99.90
15455;DHT22;21057;51.024;7.540;2024-01-25T07:13:06;7.70;99.90
15455;DHT22;21057;51.024;7.540;2024-01-25T07:15:34;7.70;99.90
15455;DHT22;21057;51.024;7.540;2024-01-25T07:18:01;7.90;99.90
15455;DHT22;21057;51.024;7.540;2024-01-25T07:20:29;7.90;99.90
15455;DHT22;21057;51.024;7.540;2024-01-25T07:22:56;8.00;99.90
15455;DHT22;21057;51.024;7.540;2024-01-25T07:25:23;7.90;99.90
15455;DHT22;21057;51.024;7.540;2024-01-25T07:27:50;7.80;99.90
15455;DHT22;21057;51.024;7.540;2024-01-25T07:30:17;7.80;99.90
15455;DHT22;21057;51.024;7.540;2024-01-25T07:32:45;8.00;99.90
15455;DHT22;21057;51.024;7.540;2024-01-25T07:35:12;7.90;99.90
15455;DHT22;21057;51.024;7.540;2024-01-25T07:37:39;7.90;99.90
15455;DHT22;21057;51.024;7.540;2024-01-25T07:40:08;7.90;99.90
15455;DHT22;21057;51.024;7.540;2024-01-25T07:42:35;7.90;99.90
15455;DHT22;21057;51.024;7.540;2024-01-25T07:45:02;7.90;99.90
15455;DHT22;21057;51.024;7.540;2024-01-25T07:47:29;7.80;99.90
15455;DHT22;21057;51.024;7.540;2024-01-25T07:49:58;7.80;99.90
15455;DHT22;21057;51.024;7.540;2024-01-25T07:52:24;7.90;99.90
15455;DHT22;21057;51.024;7.540;2024-01-25T07:54:51;8.00;99.90
15455;DHT22;21057;51.024;7.540;2024-01-25T07:57:19;8.10;99.90
15455;DHT22;21057;51.024;7.540;2024-01-25T07:59:46;8.10;99.90
15455;DHT22;21057;51.024;7.540;2024-01-25T08:02:13;8.10;99.90
15455;DHT22;21057;51.024;7.540;2024-01-25T08:04:41;8.10;99.90
15455;DHT22;21057;51.024;7.540;2024-01-25T08:07:09;8.00;99.90
15455;DHT22;21057;51.024;7.540;2024-01-25T08:09:36;7.80;99.90
15455;DHT22;21057;51.024;7.540;2024-01-25T08:12:04;7.80;99.90
15455;DHT22;21057;51.024;7.540;2024-01-25T08:14:31;7.90;99.90
15455;DHT22;21057;51.024;7.540;2024-01-25T08:16:58;7.90;99.90
15455;DHT22;21057;51.024;7.540;2024-01-25T08:19:25;8.00;99.90
15455;DHT22;21057;51.024;7.540;2024-01-25T08:21:51;8.10;99.90
15455;DHT22;21057;51.024;7.540;2024-01-25T08:24:20;7.80;99.90
15455;DHT22;21057;51.024;7.540;2024-01-25T08:26:46;7.60;99.90
15455;DHT22;21057;51.024;7.540;2024-01-25T08:29:13;7.60;99.90
15455;DHT22;21057;51.024;7.540;2024-01-25T08:31:40;7.30;99.90
15455;DHT22;21057;51.024;7.540;2024-01-25T08:34:07;7.40;99.90
15455;DHT22;21057;51.024;7.540;2024-01-25T08:36:33;7.40;99.90
15455;DHT22;21057;51.024;7.540;2024-01-25T08:39:00;7.50;99.90
15455;DHT22;21057;51.024;7.540;2024-01-25T08:41:28;7.40;99.90
15455;DHT22;21057;51.024;7.540;2024-01-25T08:43:55;7.40;99.90
15455;DHT22;21057;51.024;7.540;2024-01-25T08:46:22;7.60;99.90
15455;DHT22;21057;51.024;7.540;2024-01-25T08:48:49;7.60;99.90
15455;DHT22;21057;51.024;7.540;2024-01-25T08:51:16;7.80;99.90
15455;DHT22;21057;51.024;7.540;2024-01-25T08:53:43;8.00;99.90
15455;DHT22;21057;51.024;7.540;2024-01-25T08:56:10;8.00;99.90
15455;DHT22;21057;51.024;7.540;2024-01-25T08:58:38;7.80;99.90
15455;DHT22;21057;51.024;7.540;2024-01-25T09:01:05;7.90;99.90
15455;DHT22;21057;51.024;7.540;2024-01-25T09:03:31;8.00;99.90
15455;DHT22;21057;51.024;7.540;2024-01-25T09:05:58;8.00;99.90
15455;DHT22;21057;51.024;7.540;2024-01-25T09:08:30;8.30;99.90
15455;DHT22;21057;51.024;7.540;2024-01-25T09:10:57;8.20;99.90
15455;DHT22;21057;51.024;7.540;2024-01-25T09:13:24;8.30;99.90
15455;DHT22;21057;51.024;7.540;2024-01-25T09:15:52;8.30;99.90
15455;DHT22;21057;51.024;7.540;2024-01-25T09:18:19;8.30;99.90
15455;DHT22;21057;51.024;7.540;2024-01-25T09:20:46;8.30;99.90
15455;DHT22;21057;51.024;7.540;2024-01-25T09:23:14;8.40;99.90
15455;DHT22;21057;51.024;7.540;2024-01-25T09:25:42;8.50;99.90
15455;DHT22;21057;51.024;7.540;2024-01-25T09:28:08;8.40;99.90
15455;DHT22;21057;51.024;7.540;2024-01-25T09:30:37;8.40;99.90
15455;DHT22;21057;51.024;7.540;2024-01-25T09:33:06;8.40;99.90
15455;DHT22;21057;51.024;7.540;2024-01-25T09:35:33;8.40;99.90
15455;DHT22;21057;51.024;7.540;2024-01-25T09:37:59;8.40;99.90
15455;DHT22;21057;51.024;7.540;2024-01-25T09:40:26;8.30;99.90
15455;DHT22;21057;51.024;7.540;2024-01-25T09:42:53;8.40;99.90
15455;DHT22;21057;51.024;7.540;2024-01-25T09:45:21;8.40;99.90
15455;DHT22;21057;51.024;7.540;2024-01-25T09:47:48;8.50;99.90
15455;DHT22;21057;51.024;7.540;2024-01-25T09:50:17;8.50;99.90
15455;DHT22;21057;51.024;7.540;2024-01-25T09:52:44;8.40;99.90
15455;DHT22;21057;51.024;7.540;2024-01-25T09:55:12;8.50;99.90
15455;DHT22;21057;51.024;7.540;2024-01-25T09:57:41;8.50;99.90
15455;DHT22;21057;51.024;7.540;2024-01-25T10:00:13;8.60;99.90
15455;DHT22;21057;51.024;7.540;2024-01-25T10:02:40;8.60;99.90
15455;DHT22;21057;51.024;7.540;2024-01-25T10:05:07;8.40;99.90
15455;DHT22;21057;51.024;7.540;2024-01-25T10:07:39;8.40;99.90
15455;DHT22;21057;51.024;7.540;2024-01-25T10:10:08;8.20;99.90
15455;DHT22;21057;51.024;7.540;2024-01-25T10:12:35;8.10;99.90
15455;DHT22;21057;51.024;7.540;2024-01-25T10:15:03;8.20;99.90
15455;DHT22;21057;51.024;7.540;2024-01-25T10:17:31;8.20;99.90
15455;DHT22;21057;51.024;7.540;2024-01-25T10:19:58;8.10;99.90
15455;DHT22;21057;51.024;7.540;2024-01-25T10:22:25;8.20;99.90
15455;DHT22;21057;51.024;7.540;2024-01-25T10:24:53;8.20;99.90
15455;DHT22;21057;51.024;7.540;2024-01-25T10:27:21;8.40;99.90
15455;DHT22;21057;51.024;7.540;2024-01-25T10:29:49;8.40;99.90
15455;DHT22;21057;51.024;7.540;2024-01-25T10:32:16;8.50;99.90
15455;DHT22;21057;51.024;7.540;2024-01-25T10:34:45;8.90;99.90
15455;DHT22;21057;51.024;7.540;2024-01-25T10:37:14;9.10;99.90
15455;DHT22;21057;51.024;7.540;2024-01-25T10:39:41;9.30;99.90
15455;DHT22;21057;51.024;7.540;2024-01-25T10:42:09;9.30;99.90
15455;DHT22;21057;51.024;7.540;2024-01-25T10:44:36;8.80;99.90
15455;DHT22;21057;51.024;7.540;2024-01-25T10:47:05;8.60;99.90
15455;DHT22;21057;51.024;7.540;2024-01-25T10:49:32;8.60;99.90
15455;DHT22;21057;51.024;7.540;2024-01-25T10:52:00;8.70;99.90
15455;DHT22;21057;51.024;7.540;2024-01-25T10:54:27;8.60;99.90
15455;DHT22;21057;51.024;7.540;2024-01-25T10:56:54;8.60;99.90
15455;DHT22;21057;51.024;7.540;2024-01-25T10:59:22;8.60;99.90
15455;DHT22;21057;51.024;7.540;2024-01-25T11:01:50;8.90;99.90
15455;DHT22;21057;51.024;7.540;2024-01-25T11:04:18;9.20;99.90
15455;DHT22;21057;51.024;7.540;2024-01-25T11:06:46;9.10;99.90
15455;DHT22;21057;51.024;7.540;2024-01-25T11:09:17;9.10;99.90
15455;DHT22;21057;51.024;7.540;2024-01-25T11:11:46;9.10;99.90
15455;DHT22;21057;51.024;7.540;2024-01-25T11:14:13;9.20;99.90
15455;DHT22;21057;51.024;7.540;2024-01-25T11:16:43;9.00;99.90
15455;DHT22;21057;51.024;7.540;2024-01-25T11:19:16;9.20;99.90
15455;DHT22;21057;51.024;7.540;2024-01-25T11:21:44;9.30;99.90
15455;DHT22;21057;51.024;7.540;2024-01-25T11:24:13;9.40;99.90
15455;DHT22;21057;51.024;7.540;2024-01-25T11:26:41;9.40;99.90
15455;DHT22;21057;51.024;7.540;2024-01-25T11:29:08;9.30;99.90
15455;DHT22;21057;51.024;7.540;2024-01-25T11:31:35;9.20;99.90
15455;DHT22;21057;51.024;7.540;2024-01-25T11:34:03;9.00;99.90
15455;DHT22;21057;51.024;7.540;2024-01-25T11:36:31;9.10;99.90
15455;DHT22;21057;51.024;7.540;2024-01-25T11:38:58;9.10;99.90
15455;DHT22;21057;51.024;7.540;2024-01-25T11:41:25;9.10;99.90
15455;DHT22;21057;51.024;7.540;2024-01-25T11:43:52;9.20;99.90
15455;DHT22;21057;51.024;7.540;2024-01-25T11:46:19;9.00;99.90
15455;DHT22;21057;51.024;7.540;2024-01-25T11:48:46;8.90;99.90
15455;DHT22;21057;51.024;7.540;2024-01-25T11:51:14;9.20;99.90
15455;DHT22;21057;51.024;7.540;2024-01-25T11:53:41;9.50;99.90
15455;DHT22;21057;51.024;7.540;2024-01-25T11:56:10;9.60;99.90
15455;DHT22;21057;51.024;7.540;2024-01-25T11:58:38;9.70;99.90
15455;DHT22;21057;51.024;7.540;2024-01-25T12:01:06;9.70;99.90
15455;DHT22;21057;51.024;7.540;2024-01-25T12:03:34;9.80;99.90
15455;DHT22;21057;51.024;7.540;2024-01-25T12:06:02;9.70;99.90
15455;DHT22;21057;51.024;7.540;2024-01-25T12:08:32;9.80;99.90
15455;DHT22;21057;51.024;7.540;2024-01-25T12:11:06;9.90;99.90
15455;DHT22;21057;51.024;7.540;2024-01-25T12:13:33;9.90;99.90
15455;DHT22;21057;51.024;7.540;2024-01-25T12:16:02;9.80;99.90
15455;DHT22;21057;51.024;7.540;2024-01-25T12:18:30;9.90;99.90
15455;DHT22;21057;51.024;7.540;2024-01-25T12:20:58;9.80;99.90
15455;DHT22;21057;51.024;7.540;2024-01-25T12:23:31;10.00;99.90
15455;DHT22;21057;51.024;7.540;2024-01-25T12:26:00;10.20;99.90
15455;DHT22;21057;51.024;7.540;2024-01-25T12:28:27;10.20;99.90
15455;DHT22;21057;51.024;7.540;2024-01-25T12:30:54;10.30;99.90
15455;DHT22;21057;51.024;7.540;2024-01-25T12:33:21;10.30;99.90
15455;DHT22;21057;51.024;7.540;2024-01-25T12:35:48;10.20;99.90
15455;DHT22;21057;51.024;7.540;2024-01-25T12:38:15;10.40;99.90
15455;DHT22;21057;51.024;7.540;2024-01-25T12:40:43;10.20;99.90
15455;DHT22;21057;51.024;7.540;2024-01-25T12:43:10;10.20;99.90
15455;DHT22;21057;51.024;7.540;2024-01-25T12:45:37;10.20;99.90
15455;DHT22;21057;51.024;7.540;2024-01-25T12:48:05;10.00;99.90
15455;DHT22;21057;51.024;7.540;2024-01-25T12:50:33;9.90;99.90
15455;DHT22;21057;51.024;7.540;2024-01-25T12:53:01;9.90;99.90
15455;DHT22;21057;51.024;7.540;2024-01-25T12:55:28;9.90;99.90
15455;DHT22;21057;51.024;7.540;2024-01-25T12:57:57;9.90;99.90
15455;DHT22;21057;51.024;7.540;2024-01-25T13:00:24;9.80;99.90
15455;DHT22;21057;51.024;7.540;2024-01-25T13:02:51;10.00;99.90
15455;DHT22;21057;51.024;7.540;2024-01-25T13:05:19;10.10;99.90
15455;DHT22;21057;51.024;7.540;2024-01-25T13:07:46;10.00;99.90
15455;DHT22;21057;51.024;7.540;2024-01-25T13:10:14;10.10;99.90
15455;DHT22;21057;51.024;7.540;2024-01-25T13:12:41;10.30;99.90
15455;DHT22;21057;51.024;7.540;2024-01-25T13:15:09;10.30;99.90
15455;DHT22;21057;51.024;7.540;2024-01-25T13:17:36;10.40;99.90
15455;DHT22;21057;51.024;7.540;2024-01-25T13:20:04;10.40;99.90
15455;DHT22;21057;51.024;7.540;2024-01-25T13:22:32;10.20;99.90
15455;DHT22;21057;51.024;7.540;2024-01-25T13:24:59;10.30;99.90
15455;DHT22;21057;51.024;7.540;2024-01-25T13:27:26;10.10;99.90
15455;DHT22;21057;51.024;7.540;2024-01-25T13:29:53;10.20;99.90
15455;DHT22;21057;51.024;7.540;2024-01-25T13:32:22;10.00;99.90
15455;DHT22;21057;51.024;7.540;2024-01-25T13:34:49;10.00;99.90
15455;DHT22;21057;51.024;7.540;2024-01-25T13:37:16;10.10;99.90
15455;DHT22;21057;51.024;7.540;2024-01-25T13:39:42;10.00;99.90
15455;DHT22;21057;51.024;7.540;2024-01-25T13:42:09;9.80;99.90
15455;DHT22;21057;51.024;7.540;2024-01-25T13:44:36;9.90;99.90
15455;DHT22;21057;51.024;7.540;2024-01-25T13:47:04;9.80;99.90
15455;DHT22;21057;51.024;7.540;2024-01-25T13:49:33;10.00;99.90
15455;DHT22;21057;51.024;7.540;2024-01-25T13:52:01;10.20;99.90
15455;DHT22;21057;51.024;7.540;2024-01-25T13:54:29;10.20;99.90
15455;DHT22;21057;51.024;7.540;2024-01-25T13:56:56;10.20;99.90
15455;DHT22;21057;51.024;7.540;2024-01-25T13:59:23;10.00;99.90
15455;DHT22;21057;51.024;7.540;2024-01-25T14:01:51;10.10;99.90
15455;DHT22;21057;51.024;7.540;2024-01-25T14:04:18;10.40;99.90
15455;DHT22;21057;51.024;7.540;2024-01-25T14:06:46;10.30;99.90
15455;DHT22;21057;51.024;7.540;2024-01-25T14:09:13;10.30;99.90
15455;DHT22;21057;51.024;7.540;2024-01-25T14:11:40;10.30;99.90
15455;DHT22;21057;51.024;7.540;2024-01-25T14:14:06;10.30;99.90
15455;DHT22;21057;51.024;7.540;2024-01-25T14:16:33;10.60;99.90
15455;DHT22;21057;51.024;7.540;2024-01-25T14:19:00;10.70;99.90
15455;DHT22;21057;51.024;7.540;2024-01-25T14:21:29;10.50;99.90
15455;DHT22;21057;51.024;7.540;2024-01-25T14:23:57;10.40;99.90
15455;DHT22;21057;51.024;7.540;2024-01-25T14:26:24;10.40;99.90
15455;DHT22;21057;51.024;7.540;2024-01-25T14:28:50;10.40;99.90
15455;DHT22;21057;51.024;7.540;2024-01-25T14:31:17;10.40;99.90
15455;DHT22;21057;51.024;7.540;2024-01-25T14:33:44;10.40;99.90
15455;DHT22;21057;51.024;7.540;2024-01-25T14:36:11;10.40;99.90
15455;DHT22;21057;51.024;7.540;2024-01-25T14:38:39;10.40;99.90
15455;DHT22;21057;51.024;7.540;2024-01-25T14:41:09;10.30;99.90
15455;DHT22;21057;51.024;7.540;2024-01-25T14:43:37;10.30;99.90
15455;DHT22;21057;51.024;7.540;2024-01-25T14:46:04;10.40;99.90
15455;DHT22;21057;51.024;7.540;2024-01-25T14:48:31;10.30;99.90
15455;DHT22;21057;51.024;7.540;2024-01-25T14:50:58;10.30;99.90
15455;DHT22;21057;51.024;7.540;2024-01-25T14:53:24;10.20;99.90
15455;DHT22;21057;51.024;7.540;2024-01-25T14:55:51;10.10;99.90
15455;DHT22;21057;51.024;7.540;2024-01-25T14:58:19;10.00;99.90
15455;DHT22;21057;51.024;7.540;2024-01-25T15:00:49;9.90;99.90
15455;DHT22;21057;51.024;7.540;2024-01-25T15:03:15;10.00;99.90
15455;DHT22;21057;51.024;7.540;2024-01-25T15:05:42;9.80;99.90
15455;DHT22;21057;51.024;7.540;2024-01-25T15:08:09;9.80;99.90
15455;DHT22;21057;51.024;7.540;2024-01-25T15:10:36;9.70;99.90
15455;DHT22;21057;51.024;7.540;2024-01-25T15:13:03;9.70;99.90
15455;DHT22;21057;51.024;7.540;2024-01-25T15:15:31;9.60;99.90
15455;DHT22;21057;51.024;7.540;2024-01-25T15:17:58;9.50;99.90
15455;DHT22;21057;51.024;7.540;2024-01-25T15:20:24;9.50;99.90
15455;DHT22;21057;51.024;7.540;2024-01-25T15:22:52;9.50;99.90
15455;DHT22;21057;51.024;7.540;2024-01-25T15:25:21;9.40;99.90
15455;DHT22;21057;51.024;7.540;2024-01-25T15:27:47;9.40;99.90
15455;DHT22;21057;51.024;7.540;2024-01-25T15:30:16;9.30;99.90
15455;DHT22;21057;51.024;7.540;2024-01-25T15:32:44;9.20;99.90
15455;DHT22;21057;51.024;7.540;2024-01-25T15:35:12;9.10;99.90
15455;DHT22;21057;51.024;7.540;2024-01-25T15:37:39;9.10;99.90
15455;DHT22;21057;51.024;7.540;2024-01-25T15:40:07;9.10;99.90
15455;DHT22;21057;51.024;7.540;2024-01-25T15:42:37;9.00;99.90
15455;DHT22;21057;51.024;7.540;2024-01-25T15:45:05;8.90;99.90